Time;durP1;ratioP1;P1;durP2;ratioP2;P2;SDS_P1;SDS_P2;PMS_P1;PMS_P2;Temp;Humidity;BMP_temperature;BMP_pressure;BME280_temperature;BME280_humidity;BME280_pressure;Samples;Min_cycle;Max_cycle;Signal;HPM_P1;HPM_P2
2022/12/10 00:00:36;;;;;;;42.05;20.42;;;;;;;-1.58;87.83;100689.13;5052816;28;20132;-70
2022/12/10 00:03:02;;;;;;;41.75;21.48;;;;;;;-1.60;87.72;100683.91;5052445;28;20036;-71
2022/12/10 00:05:27;;;;;;;43.78;20.48;;;;;;;-1.61;87.52;100687.44;5052804;28;20032;-70
2022/12/10 00:07:52;;;;;;;45.40;22.02;;;;;;;-1.60;88.39;100688.28;5052825;28;20025;-71
2022/12/10 00:10:17;;;;;;;45.42;21.75;;;;;;;-1.58;87.99;100694.41;5053311;28;20025;-71
2022/12/10 00:12:43;;;;;;;44.53;22.08;;;;;;;-1.57;87.93;100698.75;5053723;28;20020;-70
2022/12/10 00:15:08;;;;;;;38.63;20.63;;;;;;;-1.57;88.40;100698.75;5055975;28;20017;-71
2022/12/10 00:17:34;;;;;;;43.50;21.05;;;;;;;-1.55;87.79;100698.72;5036494;28;20025;-70
2022/12/10 00:19:59;;;;;;;43.53;21.00;;;;;;;-1.54;88.04;100698.66;5054118;28;20036;-70
2022/12/10 00:22:24;;;;;;;39.70;21.95;;;;;;;-1.55;87.91;100702.22;5054010;28;20048;-68
2022/12/10 00:24:49;;;;;;;43.67;22.40;;;;;;;-1.57;88.00;100701.38;5052819;28;20123;-66
2022/12/10 00:27:15;;;;;;;42.60;21.33;;;;;;;-1.56;88.14;100705.75;5053306;28;20060;-67
2022/12/10 00:29:40;;;;;;;42.17;19.92;;;;;;;-1.59;87.47;100709.31;5051637;28;20108;-66
2022/12/10 00:32:05;;;;;;;42.70;20.40;;;;;;;-1.62;87.61;100712.03;5051628;28;20506;-67
2022/12/10 00:34:31;;;;;;;46.30;22.05;;;;;;;-1.61;87.69;100713.78;5043127;28;20025;-67
2022/12/10 00:36:57;;;;;;;36.28;20.58;;;;;;;-1.63;88.33;100715.56;5044588;28;20036;-67
2022/12/10 00:39:22;;;;;;;42.83;22.15;;;;;;;-1.64;88.93;100711.22;5032418;28;20063;-68
2022/12/10 00:41:47;;;;;;;43.95;21.27;;;;;;;-1.66;88.70;100707.75;5041975;28;20452;-68
2022/12/10 00:44:14;;;;;;;42.65;21.75;;;;;;;-1.68;88.80;100706.94;5052201;28;20051;-70
2022/12/10 00:46:39;;;;;;;42.63;21.25;;;;;;;-1.67;88.55;100703.41;5051327;28;20038;-67
2022/12/10 00:49:05;;;;;;;45.20;22.55;;;;;;;-1.68;88.34;100708.72;5052127;28;20032;-67
2022/12/10 00:51:30;;;;;;;39.25;21.85;;;;;;;-1.71;88.36;100696.47;5051017;28;20081;-67
2022/12/10 00:53:57;;;;;;;41.72;22.85;;;;;;;-1.75;88.10;100692.19;5034070;28;20155;-67
2022/12/10 00:56:25;;;;;;;41.38;21.50;;;;;;;-1.77;88.23;100697.50;5033945;28;20029;-66
2022/12/10 00:58:51;;;;;;;40.72;21.58;;;;;;;-1.79;88.08;100690.53;5051850;28;20473;-67
2022/12/10 01:01:28;;;;;;;44.08;21.83;;;;;;;-1.78;88.02;100692.25;5050631;28;20035;-67
2022/12/10 01:03:56;;;;;;;42.67;24.15;;;;;;;-1.78;88.70;100689.63;5052230;28;20463;-66
2022/12/10 01:06:28;;;;;;;40.60;23.75;;;;;;;-1.78;88.48;100689.63;5050285;28;20090;-67
2022/12/10 01:08:56;;;;;;;42.83;22.45;;;;;;;-1.76;88.42;100687.81;5048272;28;20389;-67
2022/12/10 01:11:25;;;;;;;45.67;24.73;;;;;;;-1.77;88.84;100684.31;5048781;28;20033;-66
2022/12/10 01:13:51;;;;;;;48.67;23.20;;;;;;;-1.79;88.57;100688.78;5039582;28;20146;-66
2022/12/10 01:16:18;;;;;;;44.92;24.40;;;;;;;-1.79;87.96;100688.78;5049686;28;20123;-68
2022/12/10 01:18:44;;;;;;;43.08;23.67;;;;;;;-1.79;88.58;100693.16;5048983;28;20025;-66
2022/12/10 01:21:12;;;;;;;41.22;20.45;;;;;;;-1.81;87.71;100701.09;5049778;28;20037;-67
2022/12/10 01:23:40;;;;;;;40.33;22.52;;;;;;;-1.85;87.63;100702.06;5051060;28;20522;-67
2022/12/10 01:26:09;;;;;;;39.72;20.15;;;;;;;-1.88;87.96;100696.88;5049357;28;20025;-67
2022/12/10 01:28:36;;;;;;;48.30;23.55;;;;;;;-1.90;88.28;100709.22;5050453;28;20049;-68
2022/12/10 01:31:12;;;;;;;45.90;22.10;;;;;;;-1.93;88.33;100711.94;5051931;28;20033;-66
2022/12/10 01:33:38;;;;;;;43.65;22.05;;;;;;;-1.93;88.83;100717.22;5042073;28;20028;-67
2022/12/10 01:36:07;;;;;;;45.28;22.00;;;;;;;-1.92;89.27;100718.06;5051386;28;20066;-66
2022/12/10 01:38:32;;;;;;;43.30;21.02;;;;;;;-1.92;89.20;100718.91;5054905;28;20482;-66
2022/12/10 01:40:59;;;;;;;50.95;23.65;;;;;;;-1.87;89.58;100730.22;5044276;28;20060;-66
2022/12/10 01:43:25;;;;;;;45.38;21.95;;;;;;;-1.86;89.18;100724.06;5041885;28;20028;-67
2022/12/10 01:45:50;;;;;;;42.67;22.80;;;;;;;-1.86;88.70;100731.09;5054607;28;20366;-67
2022/12/10 01:48:16;;;;;;;45.00;23.25;;;;;;;-1.87;89.36;100724.09;5050402;28;20037;-67
2022/12/10 01:50:41;;;;;;;44.63;21.77;;;;;;;-1.82;90.47;100730.97;5052440;28;20501;-68
2022/12/10 01:53:07;;;;;;;45.03;23.70;;;;;;;-1.78;90.68;100732.63;5052456;28;20203;-66
2022/12/10 01:55:50;;;;;;;54.17;27.88;;;;;;;-1.70;91.35;100719.25;5055573;28;20476;-67
2022/12/10 01:58:18;;;;;;;56.55;24.58;;;;;;;-1.66;91.92;100725.34;5055687;28;20029;-66
2022/12/10 02:00:57;;;;;;;54.40;27.23;;;;;;;-1.61;91.85;100715.53;5044987;28;20060;-67
2022/12/10 02:03:35;;;;;;;47.63;24.92;;;;;;;-1.55;91.98;100723.31;5052947;28;20144;-68
2022/12/10 02:06:36;;;;;;;49.00;24.75;;;;;;;-1.49;92.07;100723.16;5037380;28;20036;-67
2022/12/10 02:09:07;;;;;;;45.47;24.52;;;;;;;-1.46;91.91;100720.44;5032044;28;20040;-67
2022/12/10 02:11:39;;;;;;;46.78;24.17;;;;;;;-1.46;91.67;100728.34;5044047;28;20021;-71
2022/12/10 02:14:16;;;;;;;63.33;24.10;;;;;;;-1.42;91.98;100727.38;5051870;28;20137;-72
2022/12/10 02:17:05;;;;;;;48.55;24.10;;;;;;;-1.33;92.29;100722.72;5050635;28;20441;-72
2022/12/10 02:20:18;;;;;;;45.45;24.10;;;;;;;-1.27;92.08;100730.50;5054092;28;20262;-69
2022/12/10 02:22:52;;;;;;;47.88;22.30;;;;;;;-1.26;92.71;100726.94;4954956;29;20039;-72
2022/12/10 02:25:24;;;;;;;45.65;24.83;;;;;;;-1.24;92.10;100723.38;4957262;29;20039;-70
2022/12/10 02:28:11;;;;;;;46.17;24.55;;;;;;;-1.25;92.39;100719.00;4956056;29;20114;-71
2022/12/10 02:30:39;;;;;;;46.28;25.83;;;;;;;-1.24;92.68;100723.38;4954903;29;20050;-72
2022/12/10 02:33:07;;;;;;;44.22;23.60;;;;;;;-1.22;92.65;100718.06;4954006;29;20051;-73
2022/12/10 02:35:38;;;;;;;46.05;23.25;;;;;;;-1.20;92.57;100723.28;4952950;28;20035;-71
2022/12/10 02:38:10;;;;;;;48.35;25.75;;;;;;;-1.18;93.04;100724.13;4953614;28;20035;-72
2022/12/10 02:40:39;;;;;;;47.78;23.33;;;;;;;-1.18;92.76;100717.06;4950503;28;20043;-71
2022/12/10 02:43:06;;;;;;;48.08;27.38;;;;;;;-1.18;93.09;100719.72;4935377;29;20504;-72
2022/12/10 02:45:33;;;;;;;49.13;26.23;;;;;;;-1.17;92.94;100718.81;4946011;28;20118;-72
2022/12/10 02:48:02;;;;;;;42.53;23.60;;;;;;;-1.18;93.38;100703.88;4951833;28;20105;-72
2022/12/10 02:50:27;;;;;;;48.22;26.25;;;;;;;-1.15;93.41;100706.44;4952015;28;20079;-72
2022/12/10 02:52:52;;;;;;;52.65;27.10;;;;;;;-1.14;93.55;100713.44;4983170;28;20045;-72
2022/12/10 02:55:21;;;;;;;45.33;26.23;;;;;;;-1.12;93.28;100706.34;5023531;28;20033;-72
2022/12/10 02:58:09;;;;;;;46.28;24.98;;;;;;;-1.12;93.95;100711.63;5050745;28;20481;-72
2022/12/10 03:00:46;;;;;;;49.55;26.65;;;;;;;-1.09;93.98;100714.19;5049911;28;20427;-72
2022/12/10 03:03:20;;;;;;;50.78;25.25;;;;;;;-1.08;93.52;100718.56;5051311;28;20039;-72
2022/12/10 03:06:08;;;;;;;47.08;26.80;;;;;;;-1.06;93.63;100729.91;5051658;28;20044;-72
2022/12/10 03:08:45;;;;;;;47.88;27.00;;;;;;;-1.03;94.03;100726.34;5051642;28;20025;-72
2022/12/10 03:11:10;;;;;;;48.35;23.38;;;;;;;-0.98;93.42;100728.84;5051084;28;20488;-72
2022/12/10 03:13:41;;;;;;;43.78;24.58;;;;;;;-0.98;93.65;100729.72;5051587;28;20029;-72
2022/12/10 03:16:07;;;;;;;48.50;25.35;;;;;;;-0.99;93.65;100733.25;5052058;28;20429;-72
2022/12/10 03:18:34;;;;;;;44.50;24.35;;;;;;;-1.00;93.47;100725.41;5051154;28;20043;-72
2022/12/10 03:21:04;;;;;;;45.90;24.23;;;;;;;-1.00;93.79;100725.41;5051558;28;20093;-72
2022/12/10 03:23:33;;;;;;;53.65;26.45;;;;;;;-0.95;93.91;100728.75;5052255;28;20063;-72
2022/12/10 03:26:00;;;;;;;50.47;26.20;;;;;;;-0.96;93.53;100725.25;5053316;28;20021;-72
2022/12/10 03:28:26;;;;;;;53.63;26.85;;;;;;;-0.98;93.44;100723.56;5049922;28;20420;-72
2022/12/10 03:30:53;;;;;;;58.10;26.90;;;;;;;-1.01;93.71;100721.91;5033910;28;20025;-72
2022/12/10 03:33:19;;;;;;;49.25;25.27;;;;;;;-1.00;93.61;100714.84;5052272;28;20062;-72
2022/12/10 03:35:45;;;;;;;51.30;26.98;;;;;;;-1.00;94.07;100718.34;5052849;28;20075;-72
2022/12/10 03:38:11;;;;;;;50.03;26.80;;;;;;;-0.97;93.96;100722.66;5037088;28;20052;-72
2022/12/10 03:40:37;;;;;;;48.17;25.30;;;;;;;-0.97;93.85;100730.59;5050245;28;20029;-72
2022/12/10 03:43:02;;;;;;;56.13;25.73;;;;;;;-0.95;93.91;100734.91;5052147;28;20021;-72
2022/12/10 03:45:28;;;;;;;52.53;27.30;;;;;;;-0.93;94.25;100729.59;5052031;28;20029;-72
2022/12/10 03:47:53;;;;;;;50.15;25.75;;;;;;;-0.92;94.30;100720.78;5048777;28;20025;-72
2022/12/10 03:50:18;;;;;;;53.70;28.00;;;;;;;-0.91;94.25;100740.97;5050667;28;20025;-72
2022/12/10 03:52:44;;;;;;;50.15;29.48;;;;;;;-0.92;94.11;100733.97;5051919;28;20448;-72
2022/12/10 03:55:10;;;;;;;49.08;26.27;;;;;;;-0.90;94.12;100734.78;5052293;28;20353;-72
2022/12/10 03:57:35;;;;;;;52.03;26.88;;;;;;;-0.91;94.29;100730.41;5051392;28;20108;-72
2022/12/10 04:00:01;;;;;;;50.60;29.80;;;;;;;-0.91;94.21;100740.97;5050574;28;20070;-72
2022/12/10 04:02:26;;;;;;;52.10;26.13;;;;;;;-0.90;94.36;100740.06;5052560;28;20028;-72
2022/12/10 04:04:52;;;;;;;50.53;28.02;;;;;;;-0.92;94.31;100739.25;5050574;28;20028;-72
2022/12/10 04:07:17;;;;;;;50.28;28.48;;;;;;;-0.93;94.46;100741.00;5051012;28;20104;-72
2022/12/10 04:09:42;;;;;;;46.05;26.35;;;;;;;-0.94;94.56;100735.78;5051568;28;20079;-72
2022/12/10 04:12:08;;;;;;;49.50;26.98;;;;;;;-0.96;94.49;100738.44;5051871;28;20040;-72
2022/12/10 04:17:17;;;;;;;52.72;25.50;;;;;;;-0.93;94.54;100733.09;5034237;28;20446;-72
2022/12/10 04:19:43;;;;;;;52.85;29.80;;;;;;;-0.92;94.38;100734.81;5051403;28;20029;-72
2022/12/10 04:27:38;;;;;;;46.40;24.63;;;;;;;-0.94;94.77;100739.28;5046660;28;20036;-72
2022/12/10 04:30:10;;;;;;;49.15;25.13;;;;;;;-0.92;94.53;100734.81;5049030;28;20092;-72
2022/12/10 04:32:35;;;;;;;51.75;27.33;;;;;;;-0.89;94.56;100739.16;5049371;28;20112;-72
2022/12/10 04:35:00;;;;;;;58.65;30.27;;;;;;;-0.89;94.57;100739.16;5050535;28;20104;-72
2022/12/10 04:37:27;;;;;;;50.50;26.80;;;;;;;-0.86;94.77;100748.75;5041893;28;20040;-72
2022/12/10 04:39:52;;;;;;;63.38;31.05;;;;;;;-0.86;94.98;100746.09;5051348;28;20029;-72
2022/12/10 04:42:19;;;;;;;52.03;25.70;;;;;;;-0.84;94.80;100747.78;5050548;28;20606;-72
2022/12/10 04:44:44;;;;;;;51.95;27.30;;;;;;;-0.85;93.98;100747.84;5048789;28;20153;-72
2022/12/10 04:47:10;;;;;;;54.97;29.92;;;;;;;-0.88;94.02;100751.41;5050181;28;20097;-72
2022/12/10 04:49:36;;;;;;;52.72;27.27;;;;;;;-0.89;94.15;100755.84;5050707;28;20029;-72
2022/12/10 04:52:02;;;;;;;50.60;27.27;;;;;;;-0.90;94.83;100758.53;5050158;28;20066;-72
2022/12/10 04:54:29;;;;;;;52.05;27.83;;;;;;;-0.90;94.85;100755.88;5049463;28;20096;-72
2022/12/10 04:56:54;;;;;;;49.25;26.50;;;;;;;-0.87;94.96;100758.44;5050994;28;20507;-72
2022/12/10 04:59:19;;;;;;;60.17;30.42;;;;;;;-0.85;94.74;100756.63;5050803;28;20025;-72
2022/12/10 05:01:45;;;;;;;53.55;30.00;;;;;;;-0.83;94.87;100754.81;5049285;28;20147;-72
2022/12/10 05:04:13;;;;;;;50.40;28.02;;;;;;;-0.83;95.10;100757.47;5026275;28;20500;-72
2022/12/10 05:06:39;;;;;;;55.38;29.05;;;;;;;-0.85;94.44;100761.88;5053161;28;20113;-72
2022/12/10 05:09:05;;;;;;;61.40;26.95;;;;;;;-0.86;94.63;100754.91;5050026;28;20444;-72
2022/12/10 05:11:32;;;;;;;52.42;27.30;;;;;;;-0.88;94.53;100751.41;5056809;28;20495;-72
2022/12/10 05:13:58;;;;;;;51.83;27.48;;;;;;;-0.86;94.64;100754.91;5055966;28;20070;-72
2022/12/10 05:16:27;;;;;;;56.78;26.75;;;;;;;-0.84;94.81;100754.84;5057572;28;20025;-72
2022/12/10 05:18:54;;;;;;;49.28;25.45;;;;;;;-0.86;94.44;100748.75;5057512;28;20017;-72
2022/12/10 05:21:21;;;;;;;60.53;29.25;;;;;;;-0.86;94.62;100754.91;5055575;28;20029;-72
2022/12/10 05:23:49;;;;;;;53.70;27.02;;;;;;;-0.86;94.20;100757.53;5055736;28;20073;-73
2022/12/10 05:26:16;;;;;;;52.53;27.23;;;;;;;-0.85;94.69;100753.97;5040387;28;20040;-72
2022/12/10 05:28:51;;;;;;;47.55;23.60;;;;;;;-0.82;94.94;100756.56;5057408;28;20574;-72
2022/12/10 05:31:26;;;;;;;47.03;26.08;;;;;;;-0.82;94.49;100756.56;5037363;28;20072;-73
2022/12/10 05:33:53;;;;;;;45.70;24.73;;;;;;;-0.81;94.39;100755.63;5057376;28;20024;-72
2022/12/10 05:36:21;;;;;;;61.90;27.88;;;;;;;-0.83;94.93;100756.59;5056525;28;20056;-72
2022/12/10 05:38:47;;;;;;;53.78;28.65;;;;;;;-0.80;94.98;100753.88;5055786;28;20051;-72
2022/12/10 05:41:24;;;;;;;54.75;27.17;;;;;;;-0.79;94.79;100745.91;5056581;28;20112;-72
2022/12/10 05:43:49;;;;;;;56.63;25.75;;;;;;;-0.77;94.70;100756.44;5055812;28;20028;-72
2022/12/10 05:46:19;;;;;;;48.85;26.48;;;;;;;-0.78;94.56;100750.25;5057151;28;20488;-72
2022/12/10 05:48:44;;;;;;;55.42;25.35;;;;;;;-0.79;94.62;100751.19;5057314;28;20503;-72
2022/12/10 05:51:12;;;;;;;51.40;27.60;;;;;;;-0.80;94.69;100751.25;5056212;28;20029;-72
2022/12/10 05:53:38;;;;;;;56.95;28.10;;;;;;;-0.80;94.87;100754.72;5054988;28;20029;-72
2022/12/10 05:56:13;;;;;;;49.22;25.95;;;;;;;-0.81;94.66;100763.53;5035387;28;20062;-72
2022/12/10 05:58:40;;;;;;;47.45;23.35;;;;;;;-0.80;95.06;100767.91;5038859;28;20385;-72
2022/12/10 06:01:07;;;;;;;48.70;25.75;;;;;;;-0.78;94.99;100768.72;5055507;28;20031;-72
2022/12/10 06:03:33;;;;;;;51.22;26.13;;;;;;;-0.77;94.72;100767.84;5054722;28;20443;-72
2022/12/10 06:05:58;;;;;;;50.22;25.50;;;;;;;-0.75;94.55;100763.41;5055188;28;20033;-72
2022/12/10 06:08:23;;;;;;;49.65;26.02;;;;;;;-0.78;94.55;100762.59;5056557;28;20021;-72
2022/12/10 06:10:49;;;;;;;48.75;24.50;;;;;;;-0.79;94.25;100768.78;5029949;28;20032;-73
2022/12/10 06:13:14;;;;;;;53.80;29.50;;;;;;;-0.80;94.52;100774.97;5054782;28;20471;-72
2022/12/10 06:15:41;;;;;;;53.17;25.17;;;;;;;-0.80;94.18;100770.56;5053953;28;20053;-72
2022/12/10 06:18:06;;;;;;;53.72;23.92;;;;;;;-0.79;94.52;100766.13;5037224;28;20053;-72
2022/12/10 06:20:32;;;;;;;43.97;25.02;;;;;;;-0.81;94.60;100768.81;5053218;28;20075;-72
2022/12/10 06:22:57;;;;;;;54.20;26.83;;;;;;;-0.81;94.42;100774.09;5053277;28;20031;-72
2022/12/10 06:25:22;;;;;;;53.10;24.75;;;;;;;-0.80;95.12;100775.84;5052976;28;20476;-72
2022/12/10 06:27:48;;;;;;;49.70;27.25;;;;;;;-0.80;94.23;100775.84;5034696;28;20027;-72
2022/12/10 06:30:13;;;;;;;52.65;24.48;;;;;;;-0.78;94.37;100786.34;5035959;28;20033;-72
2022/12/10 06:32:39;;;;;;;56.72;27.10;;;;;;;-0.80;93.85;100774.97;5052362;28;20056;-72
2022/12/10 06:35:05;;;;;;;48.88;25.55;;;;;;;-0.81;94.54;100776.72;5051541;28;20078;-72
2022/12/10 06:37:30;;;;;;;52.15;25.55;;;;;;;-0.80;95.02;100780.25;5042034;28;20029;-72
2022/12/10 06:39:56;;;;;;;46.67;23.35;;;;;;;-0.79;94.78;100769.66;5031026;28;20032;-72
2022/12/10 06:42:21;;;;;;;48.88;24.50;;;;;;;-0.77;94.96;100777.53;5053143;28;20032;-72
2022/12/10 06:44:47;;;;;;;48.17;23.95;;;;;;;-0.77;95.18;100774.91;5052567;28;20036;-72
2022/12/10 06:47:13;;;;;;;56.40;29.05;;;;;;;-0.77;94.53;100775.75;5053139;28;20076;-72
2022/12/10 06:49:38;;;;;;;52.65;27.08;;;;;;;-0.75;94.62;100787.16;5052621;28;20489;-72
2022/12/10 06:52:04;;;;;;;52.90;27.15;;;;;;;-0.74;95.11;100780.94;5052941;28;20120;-72
2022/12/10 06:54:30;;;;;;;53.08;28.38;;;;;;;-0.70;94.89;100792.28;5052275;28;20025;-72
2022/12/10 06:56:55;;;;;;;52.03;26.17;;;;;;;-0.66;94.44;100788.66;5052139;28;20021;-72
2022/12/10 06:59:21;;;;;;;55.75;26.38;;;;;;;-0.67;94.31;100796.59;5052983;28;20091;-72
2022/12/10 07:01:46;;;;;;;56.20;26.80;;;;;;;-0.66;94.20;100799.22;5049769;28;20385;-72
2022/12/10 07:04:12;;;;;;;55.97;28.85;;;;;;;-0.69;94.21;100799.28;5052569;28;20098;-72
2022/12/10 07:06:37;;;;;;;56.03;29.67;;;;;;;-0.71;94.50;100807.25;5052633;28;20509;-72
2022/12/10 07:09:02;;;;;;;56.40;28.83;;;;;;;-0.73;94.21;100814.34;5053276;28;20024;-72
2022/12/10 07:11:30;;;;;;;52.65;28.05;;;;;;;-0.73;94.77;100808.22;5033484;28;20026;-72
2022/12/10 07:13:56;;;;;;;53.80;28.65;;;;;;;-0.74;94.63;100803.84;5047029;28;20490;-72
2022/12/10 07:16:27;;;;;;;59.97;31.88;;;;;;;-0.74;95.06;100807.34;5050893;28;20020;-72
2022/12/10 07:18:55;;;;;;;51.45;28.05;;;;;;;-0.72;95.05;100808.19;5051137;28;20492;-72
2022/12/10 07:21:27;;;;;;;60.75;30.85;;;;;;;-0.68;95.03;100810.72;5051385;28;20404;-72
2022/12/10 07:23:54;;;;;;;53.30;27.30;;;;;;;-0.71;94.43;100807.25;5052443;28;20107;-72
2022/12/10 07:26:20;;;;;;;54.15;27.10;;;;;;;-0.73;94.56;100814.34;5052325;28;20025;-72
2022/12/10 07:28:46;;;;;;;55.45;30.98;;;;;;;-0.72;94.63;100812.56;5050498;28;20045;-72
2022/12/10 07:31:11;;;;;;;51.67;28.42;;;;;;;-0.76;94.94;100809.16;5051502;28;20033;-72
2022/12/10 07:33:37;;;;;;;46.63;25.92;;;;;;;-0.75;94.90;100817.94;5051837;28;20025;-72
2022/12/10 07:36:08;;;;;;;50.30;26.10;;;;;;;-0.75;94.90;100820.56;5050348;28;20021;-72
2022/12/10 07:38:33;;;;;;;53.00;27.30;;;;;;;-0.76;95.37;100819.72;5049259;28;20119;-72
2022/12/10 07:41:03;;;;;;;50.80;27.38;;;;;;;-0.76;95.41;100827.63;5050171;28;20028;-72
2022/12/10 07:43:28;;;;;;;54.78;26.88;;;;;;;-0.76;95.26;100827.63;5051284;28;20025;-72
2022/12/10 07:45:54;;;;;;;46.65;25.17;;;;;;;-0.74;95.66;100828.44;5049061;28;20119;-72
2022/12/10 07:48:19;;;;;;;50.30;26.27;;;;;;;-0.73;95.38;100824.91;5050373;28;20396;-72
2022/12/10 07:50:44;;;;;;;61.20;29.20;;;;;;;-0.74;95.84;100828.44;5050267;28;20065;-72
2022/12/10 07:53:10;;;;;;;53.15;26.42;;;;;;;-0.75;95.76;100834.66;5051871;28;20057;-72
2022/12/10 07:55:35;;;;;;;56.22;26.25;;;;;;;-0.75;95.94;100828.47;5051075;28;20037;-72
2022/12/10 07:58:00;;;;;;;48.38;27.13;;;;;;;-0.75;95.61;100834.66;5050002;28;20033;-72
2022/12/10 08:00:26;;;;;;;49.83;27.00;;;;;;;-0.74;95.67;100838.16;5049549;28;20210;-72
2022/12/10 08:02:51;;;;;;;50.30;25.85;;;;;;;-0.76;95.72;100830.28;5033110;28;20032;-72
2022/12/10 08:05:16;;;;;;;71.97;26.65;;;;;;;-0.77;95.74;100833.81;5049127;28;20031;-72
2022/12/10 08:07:42;;;;;;;77.10;25.85;;;;;;;-0.78;95.62;100837.34;5051838;28;20028;-72
2022/12/10 08:10:07;;;;;;;49.80;23.92;;;;;;;-0.76;95.91;100835.53;5034134;28;20025;-72
2022/12/10 08:12:32;;;;;;;56.58;23.92;;;;;;;-0.76;96.03;100846.09;5051540;28;20036;-72
2022/12/10 08:14:58;;;;;;;51.60;25.45;;;;;;;-0.74;95.98;100852.19;5048812;28;20062;-72
2022/12/10 08:17:23;;;;;;;48.33;24.60;;;;;;;-0.74;96.06;100849.56;5032775;28;20078;-72
2022/12/10 08:19:50;;;;;;;68.05;28.73;;;;;;;-0.75;96.39;100853.13;5050757;28;20033;-72
2022/12/10 08:22:15;;;;;;;49.22;25.58;;;;;;;-0.75;95.83;100850.47;5050851;28;20025;-72
2022/12/10 08:24:40;;;;;;;82.65;28.85;;;;;;;-0.76;96.11;100856.66;5050199;28;20051;-72
2022/12/10 08:27:06;;;;;;;49.05;24.45;;;;;;;-0.77;96.16;100854.91;5050957;28;20052;-72
2022/12/10 08:29:31;;;;;;;46.90;23.77;;;;;;;-0.76;96.51;100861.94;5050583;28;20451;-72
2022/12/10 08:31:56;;;;;;;50.42;23.85;;;;;;;-0.75;96.67;100861.03;5050932;28;20120;-72
2022/12/10 08:34:22;;;;;;;52.80;25.08;;;;;;;-0.74;96.28;100867.19;5050521;28;20021;-72
2022/12/10 08:36:47;;;;;;;46.80;24.20;;;;;;;-0.74;96.10;100865.38;5044570;28;20067;-72
2022/12/10 08:39:16;;;;;;;63.28;24.25;;;;;;;-0.72;96.32;100873.25;5040626;28;20032;-72
2022/12/10 08:41:43;;;;;;;73.80;23.77;;;;;;;-0.69;96.27;100867.91;5033611;28;20052;-72
2022/12/10 08:44:09;;;;;;;49.65;21.38;;;;;;;-0.69;96.53;100870.53;5050468;28;20472;-72
2022/12/10 08:46:34;;;;;;;47.17;23.90;;;;;;;-0.68;96.63;100876.72;5050103;28;20025;-72
2022/12/10 08:49:00;;;;;;;87.13;26.23;;;;;;;-0.70;96.54;100879.38;5028406;28;20021;-72
2022/12/10 08:51:25;;;;;;;49.90;23.05;;;;;;;-0.69;96.92;100882.88;5028662;28;20074;-72
2022/12/10 08:53:50;;;;;;;55.53;23.58;;;;;;;-0.70;97.02;100887.31;5047634;28;20438;-72
2022/12/10 08:56:16;;;;;;;57.97;25.88;;;;;;;-0.68;96.46;100884.63;5047740;28;20439;-72
2022/12/10 08:58:41;;;;;;;44.78;23.73;;;;;;;-0.66;96.51;100882.78;5050378;28;20036;-72
2022/12/10 09:01:12;;;;;;;45.40;22.92;;;;;;;-0.63;96.59;100885.34;5050585;28;20107;-72
2022/12/10 09:03:37;;;;;;;47.78;24.75;;;;;;;-0.60;97.02;100887.91;5048271;28;20083;-72
2022/12/10 09:06:09;;;;;;;46.25;20.42;;;;;;;-0.60;96.63;100898.47;5048337;28;20428;-72
2022/12/10 09:08:35;;;;;;;59.22;24.08;;;;;;;-0.61;96.35;100896.75;5048540;28;20032;-72
2022/12/10 09:11:09;;;;;;;58.17;23.25;;;;;;;-0.60;96.42;100894.06;5045066;28;20048;-72
2022/12/10 09:13:34;;;;;;;69.18;24.27;;;;;;;-0.57;96.88;100898.38;5049003;28;20048;-72
2022/12/10 09:16:00;;;;;;;52.28;24.27;;;;;;;-0.57;96.40;100899.28;5049527;28;20021;-72
2022/12/10 09:18:25;;;;;;;78.45;25.77;;;;;;;-0.56;96.47;100895.72;5047264;28;20033;-72
2022/12/10 09:20:51;;;;;;;46.60;21.73;;;;;;;-0.51;96.54;100895.59;5046592;28;20504;-73
2022/12/10 09:23:16;;;;;;;75.95;24.88;;;;;;;-0.48;96.26;100902.56;5049158;28;20060;-72
2022/12/10 09:25:41;;;;;;;52.33;23.63;;;;;;;-0.49;96.14;100903.47;5050804;28;20512;-72
2022/12/10 09:28:07;;;;;;;77.85;25.70;;;;;;;-0.52;95.90;100907.06;5049251;28;20172;-73
2022/12/10 09:30:32;;;;;;;47.13;22.50;;;;;;;-0.48;97.04;100910.47;5051419;28;20029;-68
2022/12/10 09:32:58;;;;;;;53.60;22.75;;;;;;;-0.45;96.73;100903.34;5050028;28;20106;-68
2022/12/10 09:35:23;;;;;;;52.95;22.58;;;;;;;-0.41;95.84;100901.50;5050714;28;20500;-73
2022/12/10 09:37:48;;;;;;;49.95;23.63;;;;;;;-0.41;96.31;100907.66;5048945;28;20025;-72
2022/12/10 09:40:16;;;;;;;48.05;22.38;;;;;;;-0.42;95.87;100910.34;5051150;28;20021;-73
2022/12/10 09:42:53;;;;;;;56.20;25.35;;;;;;;-0.44;96.47;100912.13;5050501;28;20533;-72
2022/12/10 09:45:26;;;;;;;67.90;24.25;;;;;;;-0.46;96.38;100922.75;5050192;28;20059;-73
2022/12/10 09:48:00;;;;;;;47.53;20.33;;;;;;;-0.44;96.61;100918.31;5050697;28;20036;-72
2022/12/10 09:50:25;;;;;;;47.20;22.00;;;;;;;-0.43;96.44;100920.00;5049694;28;20477;-73
2022/12/10 09:52:52;;;;;;;66.97;22.08;;;;;;;-0.43;96.18;100920.00;5054041;28;20074;-73
2022/12/10 09:55:25;;;;;;;38.35;18.90;;;;;;;-0.41;96.40;100919.97;5054720;28;20064;-72
2022/12/10 09:57:53;;;;;;;47.35;22.45;;;;;;;-0.40;96.22;100924.34;5054075;28;20108;-73
2022/12/10 10:00:23;;;;;;;52.10;22.23;;;;;;;-0.39;95.91;100923.47;5053402;28;20025;-72
2022/12/10 10:02:49;;;;;;;45.17;21.02;;;;;;;-0.39;96.32;100926.94;5053041;28;20111;-74
2022/12/10 10:05:22;;;;;;;50.05;23.45;;;;;;;-0.40;95.76;100927.84;5053314;28;20033;-73
2022/12/10 10:07:52;;;;;;;42.83;22.10;;;;;;;-0.40;95.83;100932.28;5049629;28;20025;-74
2022/12/10 10:10:33;;;;;;;55.20;20.95;;;;;;;-0.41;95.88;100928.78;5043647;28;20472;-72
2022/12/10 10:13:14;;;;;;;53.17;23.52;;;;;;;-0.41;96.18;100935.81;5052721;28;20028;-70
2022/12/10 10:15:43;;;;;;;44.67;20.63;;;;;;;-0.38;96.24;100939.25;5055184;28;20033;-73
2022/12/10 10:18:27;;;;;;;46.05;21.73;;;;;;;-0.34;95.94;100941.81;5053791;28;20028;-72
2022/12/10 10:20:52;;;;;;;48.20;22.15;;;;;;;-0.37;95.67;100942.75;5034662;28;20448;-72
2022/12/10 10:23:17;;;;;;;44.58;22.05;;;;;;;-0.34;96.14;100939.16;5053673;28;20028;-72
2022/12/10 10:25:43;;;;;;;46.38;21.08;;;;;;;-0.32;95.76;100939.97;5052778;28;20033;-72
2022/12/10 10:28:18;;;;;;;44.05;22.02;;;;;;;-0.31;96.03;100936.44;5035435;28;20468;-72
2022/12/10 10:30:44;;;;;;;48.10;23.67;;;;;;;-0.28;96.51;100946.91;5054345;28;20033;-73
2022/12/10 10:33:12;;;;;;;61.15;21.00;;;;;;;-0.30;96.00;100932.91;5053663;28;20029;-72
2022/12/10 10:35:55;;;;;;;83.13;22.45;;;;;;;-0.26;95.83;100942.47;5053079;28;20026;-72
2022/12/10 10:38:27;;;;;;;43.30;20.40;;;;;;;-0.29;96.13;100935.50;5053226;28;20775;-73
2022/12/10 10:40:58;;;;;;;41.88;19.27;;;;;;;-0.28;95.85;100931.06;5056060;28;20124;-72
2022/12/10 10:43:26;;;;;;;45.33;20.50;;;;;;;-0.24;96.20;100938.00;5053769;28;20032;-72
2022/12/10 10:45:58;;;;;;;45.17;22.90;;;;;;;-0.26;96.14;100930.13;5053558;28;20029;-72
2022/12/10 10:48:25;;;;;;;43.33;22.65;;;;;;;-0.26;96.81;100930.13;5054980;28;20033;-72
2022/12/10 10:51:04;;;;;;;45.42;22.15;;;;;;;-0.24;96.92;100930.94;5055732;28;20477;-72
2022/12/10 10:53:46;;;;;;;46.70;22.13;;;;;;;-0.21;96.37;100930.00;5036337;28;20021;-72
2022/12/10 10:56:16;;;;;;;45.38;20.65;;;;;;;-0.17;96.27;100928.16;5054156;28;20436;-72
2022/12/10 10:58:52;;;;;;;45.60;21.00;;;;;;;-0.13;96.75;100930.66;5053098;28;20445;-72
2022/12/10 11:01:18;;;;;;;43.22;19.75;;;;;;;-0.12;95.97;100927.09;5054628;28;20063;-72
2022/12/10 11:03:54;;;;;;;49.03;21.58;;;;;;;-0.11;95.78;100918.28;5053677;28;20033;-72
2022/12/10 11:06:20;;;;;;;43.55;21.15;;;;;;;-0.11;95.95;100928.84;5036449;28;20082;-72
2022/12/10 11:08:48;;;;;;;40.50;22.15;;;;;;;-0.11;95.93;100926.19;5054992;28;20104;-72
2022/12/10 11:11:22;;;;;;;41.33;20.70;;;;;;;-0.10;95.70;100922.66;5054840;28;20025;-72
2022/12/10 11:13:47;;;;;;;43.65;21.10;;;;;;;-0.11;95.27;100918.28;5056893;28;20052;-72
2022/12/10 11:16:23;;;;;;;43.60;22.60;;;;;;;-0.10;95.68;100914.72;5054416;28;20060;-72
2022/12/10 11:18:57;;;;;;;62.80;22.40;;;;;;;-0.05;96.20;100922.53;5055294;28;20025;-72
2022/12/10 11:21:23;;;;;;;43.97;21.63;;;;;;;-0.04;96.37;100916.34;5055052;28;20020;-72